Time;durP1;ratioP1;P1;durP2;ratioP2;P2;SDS_P1;SDS_P2;PMS_P1;PMS_P2;Temp;Humidity;BMP_temperature;BMP_pressure;BME280_temperature;BME280_humidity;BME280_pressure;Samples;Min_cycle;Max_cycle;Signal;HPM_P1;HPM_P2
2023/07/27 00:01:50;;;;;;;9.80;7.80;;;;;;;11.54;100.00;97443.73;107044;1275;25521;-76
2023/07/27 00:04:18;;;;;;;11.30;8.10;;;;;;;11.50;100.00;97438.55;106993;1275;25471;-76
2023/07/27 00:06:46;;;;;;;9.80;8.30;;;;;;;11.46;100.00;97437.98;106903;1275;22629;-77
2023/07/27 00:09:15;;;;;;;10.20;8.40;;;;;;;11.43;100.00;97440.55;106838;1256;22598;-77
2023/07/27 00:11:43;;;;;;;12.50;7.90;;;;;;;11.38;100.00;97442.95;106911;1274;22576;-77
2023/07/27 00:14:11;;;;;;;10.70;9.60;;;;;;;11.33;100.00;97440.46;106906;1274;22727;-76
2023/07/27 00:16:39;;;;;;;9.40;8.40;;;;;;;11.28;100.00;97440.86;106903;1274;24368;-76
2023/07/27 00:19:07;;;;;;;11.10;8.00;;;;;;;11.26;100.00;97439.67;106939;1274;22510;-77
2023/07/27 00:21:34;;;;;;;9.60;8.60;;;;;;;11.24;100.00;97443.08;106903;1274;22565;-77
2023/07/27 00:24:03;;;;;;;12.60;8.50;;;;;;;11.23;100.00;97445.83;106899;1274;22726;-77
2023/07/27 00:26:31;;;;;;;13.00;9.80;;;;;;;11.17;100.00;97448.83;106804;1274;172957;-77
2023/07/27 00:28:59;;;;;;;15.70;9.60;;;;;;;11.11;100.00;97446.84;106876;1274;24390;-77
2023/07/27 00:31:27;;;;;;;15.40;9.20;;;;;;;11.06;100.00;97445.04;106910;1274;22561;-77
2023/07/27 00:33:55;;;;;;;14.20;8.80;;;;;;;11.02;100.00;97443.96;106943;1274;22864;-77
2023/07/27 00:36:23;;;;;;;10.90;8.00;;;;;;;10.98;100.00;97443.52;106788;1274;22650;-77
2023/07/27 00:38:51;;;;;;;12.20;8.60;;;;;;;10.94;100.00;97446.53;106921;1274;22678;-77
2023/07/27 00:41:19;;;;;;;11.20;9.30;;;;;;;10.89;100.00;97443.13;106880;1274;22642;-77
2023/07/27 00:43:48;;;;;;;16.70;8.80;;;;;;;10.88;100.00;97446.04;106893;1274;22520;-77
2023/07/27 00:46:17;;;;;;;10.40;9.20;;;;;;;10.83;100.00;97451.89;106895;1274;23497;-77
2023/07/27 00:48:45;;;;;;;13.80;9.40;;;;;;;10.79;100.00;97454.30;106834;1274;22996;-77
2023/07/27 00:51:13;;;;;;;14.60;8.60;;;;;;;10.73;100.00;97454.70;106884;1274;24043;-77
2023/07/27 00:53:42;;;;;;;9.60;8.20;;;;;;;10.69;100.00;97451.38;107294;1274;23288;-77
2023/07/27 00:56:10;;;;;;;10.90;8.40;;;;;;;10.64;100.00;97455.08;106914;1274;22632;-77
2023/07/27 00:58:41;;;;;;;10.90;9.10;;;;;;;10.60;100.00;97459.01;106911;1274;22545;-77
2023/07/27 01:01:12;;;;;;;9.10;8.10;;;;;;;10.53;100.00;97462.26;107212;1274;22577;-77
2023/07/27 01:03:40;;;;;;;15.10;9.20;;;;;;;10.50;100.00;97462.98;106949;1274;25325;-77
2023/07/27 01:06:09;;;;;;;9.80;8.30;;;;;;;10.48;100.00;97466.00;106884;1274;22518;-76
2023/07/27 01:08:39;;;;;;;15.10;9.90;;;;;;;10.43;100.00;97466.98;106902;1274;22592;-76
2023/07/27 01:11:45;;;;;;;9.90;8.70;;;;;;;10.36;100.00;97470.73;106881;1275;22703;-77
2023/07/27 01:14:32;;;;;;;12.20;9.10;;;;;;;10.29;100.00;97476.37;106700;1275;22568;-77
2023/07/27 01:17:30;;;;;;;11.60;9.00;;;;;;;10.23;100.00;97478.14;106933;1274;22625;-77
2023/07/27 01:20:14;;;;;;;19.30;9.50;;;;;;;10.17;100.00;97483.34;106955;1274;26135;-77
2023/07/27 01:23:10;;;;;;;13.00;9.00;;;;;;;10.09;100.00;97484.01;106889;1274;22535;-77
2023/07/27 01:26:07;;;;;;;11.50;10.30;;;;;;;10.04;100.00;97483.73;107166;1274;22493;-77
2023/07/27 01:28:38;;;;;;;13.70;11.70;;;;;;;10.02;100.00;97485.19;107125;1252;24357;-77
2023/07/27 01:31:12;;;;;;;14.60;13.20;;;;;;;10.00;100.00;97483.34;106937;1274;26716;-77
2023/07/27 01:33:45;;;;;;;14.80;12.00;;;;;;;9.99;100.00;97485.25;106974;1274;22537;-77
2023/07/27 01:36:19;;;;;;;15.40;12.20;;;;;;;9.97;100.00;97488.66;107250;1274;25421;-77
2023/07/27 01:38:50;;;;;;;15.30;13.10;;;;;;;9.96;100.00;97482.60;106951;1274;22644;-76
2023/07/27 01:41:18;;;;;;;14.90;13.10;;;;;;;9.96;100.00;97484.40;106896;1274;22524;-76
2023/07/27 01:43:48;;;;;;;15.70;12.40;;;;;;;9.95;100.00;97487.86;106888;1274;22515;-76
2023/07/27 01:46:17;;;;;;;13.90;12.50;;;;;;;9.95;100.00;97492.38;106915;1274;22639;-76
2023/07/27 01:48:48;;;;;;;17.70;13.50;;;;;;;9.95;100.00;97496.37;107014;1274;22741;-76
2023/07/27 01:51:17;;;;;;;17.20;13.90;;;;;;;9.95;100.00;97500.30;106953;1274;22507;-78
2023/07/27 01:53:47;;;;;;;14.30;12.80;;;;;;;9.95;100.00;97498.46;106974;1274;25259;-77
2023/07/27 01:56:16;;;;;;;16.00;14.40;;;;;;;9.93;100.00;97499.07;106865;1274;24196;-77
2023/07/27 01:58:45;;;;;;;16.70;15.00;;;;;;;9.85;100.00;97493.05;106561;1274;25281;-76
2023/07/27 02:01:14;;;;;;;14.20;12.90;;;;;;;9.80;100.00;97490.52;106784;1274;22788;-77
2023/07/27 02:03:43;;;;;;;15.90;14.10;;;;;;;9.79;100.00;97493.60;106933;1275;25382;-77
2023/07/27 02:06:13;;;;;;;14.80;13.30;;;;;;;9.78;100.00;97493.41;106939;1274;24486;-77
2023/07/27 02:08:41;;;;;;;14.50;12.80;;;;;;;9.78;100.00;97495.02;106759;1274;25338;-76
2023/07/27 02:11:12;;;;;;;13.40;12.10;;;;;;;9.78;100.00;97495.86;106762;1274;22536;-76
2023/07/27 02:13:51;;;;;;;14.20;12.80;;;;;;;9.78;100.00;97500.46;106960;1274;22524;-77
2023/07/27 02:16:19;;;;;;;17.00;14.70;;;;;;;9.70;100.00;97497.41;106774;1274;24232;-77
2023/07/27 02:18:50;;;;;;;15.20;13.70;;;;;;;9.65;100.00;97499.63;106909;1274;22526;-77
2023/07/27 02:21:21;;;;;;;13.20;11.20;;;;;;;9.63;100.00;97501.53;106969;1274;24209;-76
2023/07/27 02:23:51;;;;;;;17.90;14.20;;;;;;;9.53;100.00;97500.89;106945;1274;22521;-76
2023/07/27 02:26:19;;;;;;;12.90;11.50;;;;;;;9.47;100.00;97507.31;106760;1274;24232;-76
2023/07/27 02:28:47;;;;;;;16.70;12.80;;;;;;;9.33;100.00;97508.73;106915;1274;22791;-77
2023/07/27 02:31:18;;;;;;;16.00;14.40;;;;;;;9.27;100.00;97511.80;106930;1274;22532;-77
2023/07/27 02:33:46;;;;;;;16.20;14.50;;;;;;;9.23;100.00;97515.42;106746;1274;22535;-77
2023/07/27 02:36:14;;;;;;;15.60;13.90;;;;;;;9.14;100.00;97522.91;106754;1274;22532;-77
2023/07/27 02:38:42;;;;;;;15.00;13.50;;;;;;;9.10;100.00;97522.66;106921;1274;22571;-77
2023/07/27 02:41:11;;;;;;;15.30;13.80;;;;;;;9.11;100.00;97526.46;106757;1274;23102;-76
2023/07/27 02:43:40;;;;;;;15.20;13.60;;;;;;;9.15;100.00;97526.88;106776;1256;22606;-76
2023/07/27 02:46:09;;;;;;;16.80;14.50;;;;;;;9.18;100.00;97530.33;107027;1274;25262;-77
2023/07/27 02:48:37;;;;;;;15.00;13.60;;;;;;;9.19;100.00;97526.42;106804;1274;22529;-77
2023/07/27 02:51:06;;;;;;;17.20;15.60;;;;;;;9.18;100.00;97529.83;106927;1274;22564;-77
2023/07/27 02:53:34;;;;;;;16.50;14.10;;;;;;;9.15;100.00;97531.60;106762;1274;25318;-78
2023/07/27 02:56:06;;;;;;;13.90;12.60;;;;;;;9.10;100.00;97529.23;106787;1274;23016;-77
2023/07/27 02:58:41;;;;;;;14.80;13.20;;;;;;;9.05;100.00;97539.10;106776;1274;22543;-76
2023/07/27 03:01:08;;;;;;;14.30;12.90;;;;;;;9.01;100.00;97536.27;106934;1274;22534;-76
2023/07/27 03:03:37;;;;;;;15.10;12.00;;;;;;;9.03;100.00;97533.98;106776;1274;22986;-76
2023/07/27 03:06:08;;;;;;;14.60;12.90;;;;;;;9.01;100.00;97543.04;106908;1274;22519;-76
2023/07/27 03:08:37;;;;;;;16.80;14.90;;;;;;;8.96;100.00;97546.48;106946;1274;24337;-76
2023/07/27 03:11:06;;;;;;;19.00;14.40;;;;;;;8.95;100.00;97546.98;106916;1274;23012;-76
2023/07/27 03:13:34;;;;;;;20.20;13.00;;;;;;;8.97;100.00;97546.61;106775;1274;22528;-76
2023/07/27 03:16:03;;;;;;;14.60;12.70;;;;;;;8.98;100.00;97546.00;106886;1274;22511;-76
2023/07/27 03:18:33;;;;;;;16.90;14.10;;;;;;;8.96;100.00;97545.34;106983;1275;22521;-76
2023/07/27 03:21:05;;;;;;;21.20;15.90;;;;;;;8.99;100.00;97542.60;106936;1274;23317;-78
2023/07/27 03:23:33;;;;;;;18.60;16.70;;;;;;;9.01;100.00;97541.86;106906;1274;24318;-77
2023/07/27 03:26:10;;;;;;;15.30;13.70;;;;;;;9.02;100.00;97542.81;106995;1274;25258;-75
2023/07/27 03:28:38;;;;;;;32.70;15.30;;;;;;;9.02;100.00;97550.05;106930;1274;22538;-76
2023/07/27 03:31:24;;;;;;;20.20;15.50;;;;;;;9.02;100.00;97548.89;106877;1274;22523;-76
2023/07/27 03:33:53;;;;;;;22.30;16.70;;;;;;;9.03;100.00;97556.33;106958;1264;25226;-76
2023/07/27 03:36:22;;;;;;;89.70;15.10;;;;;;;9.05;100.00;97557.43;106954;1274;22522;-76
2023/07/27 03:38:50;;;;;;;21.60;14.60;;;;;;;9.06;100.00;97558.27;106887;1274;22602;-76
2023/07/27 03:41:18;;;;;;;20.30;14.40;;;;;;;9.10;100.00;97557.28;106915;1274;22643;-76
2023/07/27 03:43:46;;;;;;;22.10;12.70;;;;;;;9.18;100.00;97559.46;106907;1274;25511;-76
2023/07/27 03:46:14;;;;;;;33.60;13.70;;;;;;;9.24;100.00;97565.67;106898;1274;22665;-76
2023/07/27 03:48:42;;;;;;;30.60;12.90;;;;;;;9.27;100.00;97561.45;106882;1274;22647;-76
2023/07/27 03:51:10;;;;;;;30.20;14.20;;;;;;;9.28;100.00;97566.13;106893;1274;26760;-76
2023/07/27 03:53:39;;;;;;;32.30;14.20;;;;;;;9.30;100.00;97562.61;106872;1274;22794;-77
2023/07/27 03:56:08;;;;;;;14.60;12.10;;;;;;;9.34;100.00;97563.89;106881;1274;22609;-77
2023/07/27 03:58:36;;;;;;;17.90;12.30;;;;;;;9.36;100.00;97562.11;106997;1274;25258;-77
2023/07/27 04:01:04;;;;;;;14.20;12.80;;;;;;;9.39;100.00;97566.48;106927;1274;24206;-77
2023/07/27 04:03:32;;;;;;;23.30;12.10;;;;;;;9.42;100.00;97566.42;107200;1274;25536;-78
2023/07/27 04:06:00;;;;;;;20.90;12.40;;;;;;;9.47;100.00;97564.27;106914;1274;22542;-76
2023/07/27 04:08:28;;;;;;;21.90;13.90;;;;;;;9.50;100.00;97567.27;106884;1274;24385;-77
2023/07/27 04:10:56;;;;;;;21.50;14.90;;;;;;;9.54;100.00;97570.52;106892;1274;22531;-76
2023/07/27 04:13:24;;;;;;;18.70;13.50;;;;;;;9.60;100.00;97571.97;106900;1264;25319;-79
2023/07/27 04:15:52;;;;;;;14.90;11.90;;;;;;;9.66;100.00;97575.96;106886;1274;24473;-78
2023/07/27 04:18:20;;;;;;;13.40;10.90;;;;;;;9.71;100.00;97574.77;107231;1274;24231;-79
2023/07/27 04:20:49;;;;;;;12.80;10.90;;;;;;;9.72;100.00;97575.33;107366;1274;22781;-80
2023/07/27 04:23:17;;;;;;;14.50;11.70;;;;;;;9.72;100.00;97576.19;107575;1274;23895;-79
2023/07/27 04:25:45;;;;;;;16.70;12.90;;;;;;;9.76;100.00;97577.90;107084;1274;25335;-79
2023/07/27 04:28:13;;;;;;;14.30;11.80;;;;;;;9.81;100.00;97577.09;106784;1274;23020;-80
2023/07/27 04:30:42;;;;;;;14.90;11.20;;;;;;;9.86;100.00;97580.91;107303;1274;24239;-80
2023/07/27 04:33:10;;;;;;;10.70;9.60;;;;;;;9.90;100.00;97573.73;107044;1274;22630;-79
2023/07/27 04:35:38;;;;;;;16.90;10.60;;;;;;;9.96;100.00;97575.41;106919;1274;22694;-79
2023/07/27 04:38:06;;;;;;;12.90;10.70;;;;;;;10.00;100.00;97577.38;106783;1274;25338;-78
2023/07/27 04:40:34;;;;;;;12.20;10.20;;;;;;;10.06;100.00;97574.14;107098;1274;22788;-79
2023/07/27 04:43:02;;;;;;;12.80;9.90;;;;;;;10.11;100.00;97576.77;106929;1274;22784;-78
2023/07/27 04:45:30;;;;;;;13.40;9.20;;;;;;;10.15;100.00;97579.27;106927;1263;25223;-79
2023/07/27 04:47:58;;;;;;;11.90;10.10;;;;;;;10.17;100.00;97581.80;107387;1274;22696;-79
2023/07/27 04:50:26;;;;;;;12.90;9.90;;;;;;;10.20;100.00;97586.52;107232;1274;22563;-79
2023/07/27 04:52:54;;;;;;;13.50;12.10;;;;;;;10.26;100.00;97589.90;107241;1274;22535;-79
2023/07/27 04:55:22;;;;;;;14.20;12.80;;;;;;;10.25;100.00;97590.71;107186;1274;24238;-80
2023/07/27 04:57:50;;;;;;;15.50;14.10;;;;;;;10.30;100.00;97594.46;107002;1274;22583;-80
2023/07/27 05:00:18;;;;;;;15.60;14.10;;;;;;;10.35;100.00;97593.75;107106;1274;23146;-79
2023/07/27 05:02:46;;;;;;;14.50;13.00;;;;;;;10.38;100.00;97597.57;107098;1274;22637;-78
2023/07/27 05:05:14;;;;;;;14.50;12.80;;;;;;;10.39;100.00;97595.07;106918;1274;25349;-80
2023/07/27 05:07:42;;;;;;;15.70;14.20;;;;;;;10.41;100.00;97594.11;107363;1274;22686;-78
2023/07/27 05:10:10;;;;;;;14.60;12.10;;;;;;;10.44;100.00;97590.74;106913;1270;22855;-78
2023/07/27 05:12:38;;;;;;;14.50;12.60;;;;;;;10.50;100.00;97590.73;107072;1273;22534;-78
2023/07/27 05:15:07;;;;;;;13.10;11.80;;;;;;;10.56;100.00;97592.25;107080;1272;22531;-78
2023/07/27 05:17:35;;;;;;;15.50;12.70;;;;;;;10.65;100.00;97593.43;107087;1268;22952;-80
2023/07/27 05:20:03;;;;;;;15.20;12.30;;;;;;;10.72;100.00;97598.96;107352;1272;22645;-79
2023/07/27 05:22:31;;;;;;;14.80;13.30;;;;;;;10.80;100.00;97600.95;107406;1272;25621;-79
2023/07/27 05:24:59;;;;;;;16.70;14.60;;;;;;;10.80;100.00;97604.29;107745;1269;22558;-79
2023/07/27 05:27:27;;;;;;;15.50;12.40;;;;;;;10.83;100.00;97610.93;107462;1270;22531;-79
2023/07/27 05:29:55;;;;;;;17.10;13.10;;;;;;;10.94;100.00;97612.90;107516;1266;24233;-79
2023/07/27 05:32:23;;;;;;;23.70;12.20;;;;;;;10.99;100.00;97613.78;107474;1265;23086;-79
2023/07/27 05:34:51;;;;;;;15.70;12.00;;;;;;;11.06;100.00;97612.30;107317;1266;25399;-79
2023/07/27 05:37:19;;;;;;;15.50;12.90;;;;;;;11.09;100.00;97609.87;107259;1273;22536;-80
2023/07/27 05:39:47;;;;;;;14.60;12.30;;;;;;;11.12;100.00;97611.30;107379;1272;24354;-81
2023/07/27 05:42:15;;;;;;;11.90;10.60;;;;;;;11.19;100.00;97611.30;107446;1266;22509;-80
2023/07/27 05:44:43;;;;;;;14.20;11.10;;;;;;;11.25;100.00;97608.80;107290;1264;24257;-79
2023/07/27 05:47:11;;;;;;;14.50;11.10;;;;;;;11.39;100.00;97610.13;107372;1264;23046;-80
2023/07/27 05:49:39;;;;;;;13.70;10.10;;;;;;;11.46;100.00;97609.98;107333;1272;22531;-79
2023/07/27 05:52:07;;;;;;;13.00;11.40;;;;;;;11.52;100.00;97613.71;107404;1272;22987;-79
2023/07/27 05:54:35;;;;;;;19.40;11.80;;;;;;;11.63;100.00;97611.02;107551;1272;22618;-79
2023/07/27 05:57:03;;;;;;;12.40;11.10;;;;;;;11.78;100.00;97619.58;107241;1272;22968;-77
2023/07/27 05:59:31;;;;;;;12.80;10.90;;;;;;;11.92;100.00;97614.79;107239;1259;22567;-77
2023/07/27 06:02:00;;;;;;;12.30;11.00;;;;;;;12.03;100.00;97617.42;107201;1272;25317;-77
2023/07/27 06:04:28;;;;;;;12.30;10.60;;;;;;;12.13;100.00;97617.95;108294;1259;24589;-77
2023/07/27 06:06:57;;;;;;;12.70;11.30;;;;;;;12.16;100.00;97613.54;107133;1272;22816;-77
2023/07/27 06:09:26;;;;;;;14.30;10.00;;;;;;;12.26;100.00;97611.67;107094;1272;22730;-77
2023/07/27 06:11:54;;;;;;;12.10;10.40;;;;;;;12.41;100.00;97618.67;107452;1272;22744;-77
2023/07/27 06:14:23;;;;;;;11.70;10.30;;;;;;;12.51;100.00;97617.66;107102;1273;23378;-77
2023/07/27 06:16:51;;;;;;;15.80;11.10;;;;;;;12.62;100.00;97616.04;107013;1273;22561;-77
2023/07/27 06:19:19;;;;;;;14.10;10.40;;;;;;;12.73;100.00;97611.59;107076;1272;24360;-78
2023/07/27 06:21:47;;;;;;;13.00;10.10;;;;;;;12.80;100.00;97611.14;107121;1273;24235;-78
2023/07/27 06:24:15;;;;;;;12.60;10.10;;;;;;;12.78;100.00;97614.38;107082;1273;24397;-78
2023/07/27 06:26:42;;;;;;;13.50;10.60;;;;;;;12.86;100.00;97617.48;107082;1273;22607;-78
2023/07/27 06:29:10;;;;;;;12.00;10.70;;;;;;;12.95;100.00;97616.80;107075;1273;22633;-77
2023/07/27 06:31:38;;;;;;;12.50;9.80;;;;;;;13.06;100.00;97616.88;107053;1273;22521;-79
2023/07/27 06:34:06;;;;;;;12.70;10.10;;;;;;;13.12;100.00;97623.40;106989;1273;22557;-79
2023/07/27 06:36:34;;;;;;;14.80;10.00;;;;;;;13.17;100.00;97622.90;107084;1249;22628;-79
2023/07/27 06:39:04;;;;;;;15.50;9.60;;;;;;;13.26;100.00;97622.73;107277;1273;25560;-78
2023/07/27 06:41:32;;;;;;;11.30;9.20;;;;;;;13.29;100.00;97619.01;107115;1272;23133;-79
2023/07/27 06:44:00;;;;;;;11.80;8.40;;;;;;;13.31;100.00;97621.58;107475;1272;22539;-75
2023/07/27 06:46:29;;;;;;;11.20;8.80;;;;;;;13.37;100.00;97622.05;107088;1272;22659;-75
2023/07/27 06:48:57;;;;;;;11.70;7.60;;;;;;;13.47;100.00;97620.61;107042;1272;22722;-75
2023/07/27 06:51:25;;;;;;;13.20;7.40;;;;;;;13.57;100.00;97625.00;107042;1273;23053;-75
2023/07/27 06:53:52;;;;;;;8.80;6.90;;;;;;;13.71;100.00;97624.38;107081;1273;22594;-74
2023/07/27 06:56:20;;;;;;;14.20;7.20;;;;;;;13.87;100.00;97624.54;107123;1273;23945;-77
2023/07/27 06:58:48;;;;;;;12.30;7.50;;;;;;;13.91;100.00;97624.48;107070;1260;22643;-75
2023/07/27 07:01:16;;;;;;;11.20;7.10;;;;;;;13.93;100.00;97624.33;107077;1273;22575;-75
2023/07/27 07:03:44;;;;;;;7.90;6.60;;;;;;;13.94;100.00;97621.52;107092;1273;22537;-75
2023/07/27 07:06:12;;;;;;;9.90;7.10;;;;;;;14.03;100.00;97617.84;107092;1273;24196;-77
2023/07/27 07:08:40;;;;;;;10.00;6.10;;;;;;;14.12;100.00;97624.66;107082;1256;24222;-75
2023/07/27 07:11:08;;;;;;;12.00;6.40;;;;;;;14.17;100.00;97623.30;107002;1273;22640;-78
2023/07/27 07:13:36;;;;;;;9.30;6.90;;;;;;;14.24;100.00;97626.14;107090;1263;23010;-78
2023/07/27 07:16:05;;;;;;;12.50;6.20;;;;;;;14.32;100.00;97626.45;107057;1273;24240;-77
2023/07/27 07:18:33;;;;;;;7.50;5.90;;;;;;;14.44;100.00;97630.29;107065;1273;22514;-76
2023/07/27 07:21:01;;;;;;;8.70;6.00;;;;;;;14.44;100.00;97631.63;107333;1273;25458;-76
2023/07/27 07:23:29;;;;;;;8.20;5.90;;;;;;;14.44;100.00;97629.20;107027;1273;22647;-76
2023/07/27 07:25:57;;;;;;;6.40;5.20;;;;;;;14.54;99.91;97633.16;106989;1273;22532;-75
2023/07/27 07:28:25;;;;;;;9.80;5.30;;;;;;;14.57;99.82;97633.91;107004;1273;24234;-75
2023/07/27 07:30:53;;;;;;;8.10;4.90;;;;;;;14.70;100.00;97627.27;106989;1273;22518;-76
2023/07/27 07:33:21;;;;;;;8.80;4.80;;;;;;;14.86;99.83;97626.98;107045;1273;22540;-80
2023/07/27 07:35:49;;;;;;;6.60;4.30;;;;;;;14.97;99.67;97628.06;107077;1273;22517;-78
2023/07/27 07:38:17;;;;;;;6.40;4.10;;;;;;;15.10;98.96;97628.66;107095;1273;23147;-76
2023/07/27 07:40:46;;;;;;;11.30;4.70;;;;;;;15.11;95.14;97630.02;107083;1273;23019;-79
2023/07/27 07:43:14;;;;;;;7.20;4.50;;;;;;;15.13;97.60;97615.72;107188;1273;25305;-77
2023/07/27 07:45:42;;;;;;;6.30;4.50;;;;;;;15.22;94.26;97618.38;107080;1273;22533;-78
2023/07/27 07:48:10;;;;;;;6.00;3.90;;;;;;;15.27;95.00;97617.08;107260;1260;22538;-78
2023/07/27 07:50:38;;;;;;;7.60;4.40;;;;;;;15.26;95.42;97614.57;107621;1266;25017;-78
2023/07/27 07:53:06;;;;;;;8.40;4.40;;;;;;;15.36;94.65;97611.04;107551;1273;25341;-78
2023/07/27 07:55:41;;;;;;;6.10;4.20;;;;;;;15.45;94.06;97616.98;107401;1273;22821;-78
2023/07/27 07:58:09;;;;;;;9.80;4.00;;;;;;;15.56;94.00;97620.05;107414;1274;24234;-78
2023/07/27 08:00:37;;;;;;;7.20;4.40;;;;;;;15.67;93.89;97622.98;107484;1274;25320;-79
2023/07/27 08:03:05;;;;;;;8.50;4.10;;;;;;;15.78;90.74;97623.80;107428;1274;22645;-79
2023/07/27 08:05:33;;;;;;;6.80;4.30;;;;;;;15.85;90.91;97625.91;107399;1274;24367;-77
2023/07/27 08:08:01;;;;;;;8.30;4.60;;;;;;;15.87;89.71;97622.65;107030;1274;22638;-78
2023/07/27 08:10:29;;;;;;;6.70;4.70;;;;;;;15.88;90.93;97625.45;107423;1274;25464;-78
2023/07/27 08:12:57;;;;;;;5.00;3.60;;;;;;;15.99;89.14;97626.59;107534;1274;26635;-78
2023/07/27 08:15:25;;;;;;;9.50;4.70;;;;;;;15.95;86.83;97637.39;107366;1274;22574;-78
2023/07/27 08:17:53;;;;;;;8.20;3.70;;;;;;;15.87;87.88;97632.49;107321;1274;25409;-79
2023/07/27 08:20:21;;;;;;;5.30;3.70;;;;;;;15.91;88.55;97634.81;106999;1274;25392;-77
2023/07/27 08:22:49;;;;;;;6.50;3.30;;;;;;;16.07;87.02;97633.28;106980;1274;22549;-76
2023/07/27 08:25:17;;;;;;;7.90;4.30;;;;;;;16.15;85.85;97632.11;106994;1274;22768;-76
2023/07/27 08:27:51;;;;;;;6.00;3.90;;;;;;;16.19;83.71;97639.84;107417;1274;22578;-76
2023/07/27 08:30:19;;;;;;;6.60;3.90;;;;;;;16.19;84.99;97634.44;107378;1274;22582;-77
2023/07/27 08:32:47;;;;;;;5.50;3.70;;;;;;;16.32;83.44;97628.06;106991;1253;22540;-76
2023/07/27 08:35:15;;;;;;;5.70;3.50;;;;;;;16.43;81.48;97636.94;106965;1274;25988;-76
2023/07/27 08:37:43;;;;;;;4.90;3.90;;;;;;;16.39;81.25;97633.77;107004;1274;25322;-75
2023/07/27 08:40:12;;;;;;;4.90;3.20;;;;;;;16.49;82.31;97624.77;106972;1274;22525;-78
2023/07/27 08:42:42;;;;;;;6.40;3.70;;;;;;;16.61;80.59;97623.40;107368;1274;23384;-77
2023/07/27 08:45:13;;;;;;;8.60;3.50;;;;;;;16.69;81.40;97613.21;107376;1273;22689;-76
2023/07/27 08:47:41;;;;;;;5.10;3.10;;;;;;;16.83;81.67;97615.55;107403;1263;22641;-78
2023/07/27 08:50:10;;;;;;;5.40;3.10;;;;;;;16.94;78.10;97615.86;106985;1274;23311;-76
2023/07/27 08:52:38;;;;;;;6.40;3.30;;;;;;;16.92;75.88;97611.69;107062;1274;25339;-78
2023/07/27 08:55:07;;;;;;;9.00;3.30;;;;;;;16.94;76.51;97609.95;106932;1274;23376;-77
2023/07/27 08:57:35;;;;;;;4.60;3.10;;;;;;;17.06;78.20;97604.84;107034;1263;24231;-77
2023/07/27 09:00:04;;;;;;;5.90;3.20;;;;;;;17.06;76.84;97607.55;107010;1274;22640;-77
2023/07/27 09:02:32;;;;;;;5.70;3.20;;;;;;;16.98;78.07;97608.04;107028;1273;26588;-76
2023/07/27 09:05:00;;;;;;;4.40;3.00;;;;;;;16.89;77.36;97613.88;107383;1274;22539;-76
2023/07/27 09:07:28;;;;;;;5.60;3.50;;;;;;;16.96;76.88;97614.05;107389;1274;25508;-76
2023/07/27 09:09:56;;;;;;;4.10;2.80;;;;;;;17.06;72.04;97621.10;106945;1274;22630;-76
2023/07/27 09:12:26;;;;;;;3.70;2.50;;;;;;;17.13;72.21;97612.63;107007;1273;25323;-76
2023/07/27 09:14:54;;;;;;;4.40;2.80;;;;;;;17.25;72.27;97615.44;106979;1273;22633;-76
2023/07/27 09:17:22;;;;;;;4.70;2.80;;;;;;;17.30;70.48;97609.49;106988;1273;24286;-77
2023/07/27 09:19:50;;;;;;;5.50;3.50;;;;;;;17.42;71.76;97611.75;106984;1273;23916;-82
2023/07/27 09:22:18;;;;;;;7.90;3.20;;;;;;;17.47;71.36;97611.80;107417;1273;24676;-81
2023/07/27 09:24:47;;;;;;;4.20;2.90;;;;;;;17.63;72.01;97609.55;106963;1273;25337;-80
2023/07/27 09:27:15;;;;;;;4.60;3.20;;;;;;;17.94;74.22;97605.86;107008;1267;22598;-83
2023/07/27 09:29:44;;;;;;;5.30;3.00;;;;;;;18.20;67.91;97606.16;107383;1274;24368;-81
2023/07/27 09:32:12;;;;;;;5.00;3.00;;;;;;;18.06;68.26;97605.54;106979;1273;23004;-82
2023/07/27 09:34:40;;;;;;;4.70;3.30;;;;;;;18.04;67.90;97606.80;107051;1273;23634;-82
2023/07/27 09:37:08;;;;;;;4.80;3.10;;;;;;;18.00;68.00;97606.17;106966;1273;23029;-82
2023/07/27 09:39:42;;;;;;;5.10;3.00;;;;;;;17.97;67.93;97607.34;106930;1273;25456;-82
2023/07/27 09:42:14;;;;;;;5.00;3.10;;;;;;;17.95;67.95;97604.66;107056;1273;24240;-81
2023/07/27 09:44:50;;;;;;;5.10;3.00;;;;;;;18.09;67.43;97599.38;107051;1273;24229;-82
2023/07/27 09:47:23;;;;;;;4.40;3.00;;;;;;;18.30;68.13;97597.35;106985;1266;22533;-82
2023/07/27 09:49:54;;;;;;;5.10;3.70;;;;;;;18.47;68.28;97598.72;107566;1272;22521;-82
2023/07/27 09:52:23;;;;;;;4.90;3.20;;;;;;;18.48;65.83;97600.05;107650;1272;22785;-82
2023/07/27 09:54:54;;;;;;;4.60;2.90;;;;;;;18.23;66.21;97598.13;107533;1272;22740;-82
2023/07/27 09:57:23;;;;;;;8.50;3.40;;;;;;;18.29;67.39;97595.36;107544;1272;25603;-82
2023/07/27 09:59:51;;;;;;;5.00;3.20;;;;;;;18.49;64.86;97592.52;107400;1272;22552;-81
2023/07/27 10:02:21;;;;;;;5.40;3.30;;;;;;;18.58;66.80;97587.17;107554;1272;22586;-81
2023/07/27 10:04:58;;;;;;;4.00;3.00;;;;;;;18.63;66.79;97588.58;107507;1272;25271;-81
2023/07/27 10:07:27;;;;;;;6.10;3.50;;;;;;;18.62;67.07;97592.01;107152;1272;23036;-81
2023/07/27 10:10:33;;;;;;;3.80;2.70;;;;;;;18.62;64.36;97590.21;107078;1272;22573;-81
2023/07/27 10:13:25;;;;;;;7.50;3.30;;;;;;;18.57;64.58;97586.90;107699;1272;22554;-83
2023/07/27 10:15:55;;;;;;;18.50;9.40;;;;;;;18.65;64.27;97589.88;107570;1272;23927;-83
2023/07/27 10:18:26;;;;;;;13.50;6.60;;;;;;;18.65;63.13;97584.42;107567;1272;22594;-81
2023/07/27 10:20:55;;;;;;;8.50;4.50;;;;;;;18.76;63.85;97588.63;107359;1274;24250;-82
2023/07/27 10:23:29;;;;;;;19.30;8.10;;;;;;;18.92;64.57;97585.76;107449;1266;24361;-79
2023/07/27 10:25:59;;;;;;;5.40;3.50;;;;;;;19.25;63.12;97578.33;107049;1273;25396;-79
2023/07/27 10:28:49;;;;;;;4.90;3.30;;;;;;;19.42;61.94;97574.39;107434;1273;22520;-80
2023/07/27 10:31:23;;;;;;;7.90;3.80;;;;;;;19.40;62.41;97571.94;107405;1273;23514;-78
2023/07/27 10:34:12;;;;;;;5.50;3.40;;;;;;;19.42;62.21;97569.48;107562;1270;23382;-79
2023/07/27 10:36:57;;;;;;;4.30;3.20;;;;;;;19.36;63.38;97564.48;107420;1273;25357;-79
2023/07/27 10:39:41;;;;;;;4.60;3.20;;;;;;;19.35;62.80;97566.24;107544;1270;22577;-79
2023/07/27 10:42:17;;;;;;;6.60;3.70;;;;;;;19.50;61.73;97564.92;107002;1273;25317;-79
2023/07/27 10:44:47;;;;;;;6.10;3.00;;;;;;;19.64;60.86;97562.91;107205;1273;25415;-79
2023/07/27 10:47:32;;;;;;;5.20;3.40;;;;;;;19.88;60.75;97560.63;107517;1273;22531;-79
2023/07/27 10:50:00;;;;;;;9.70;3.40;;;;;;;19.93;58.18;97554.86;107693;1272;22646;-79
2023/07/27 10:52:37;;;;;;;3.70;2.80;;;;;;;19.83;56.94;97553.30;107691;1272;26502;-79
2023/07/27 10:55:06;;;;;;;4.70;3.00;;;;;;;19.53;55.82;97552.58;107429;1272;24370;-79
2023/07/27 10:57:35;;;;;;;4.00;2.80;;;;;;;19.33;57.75;97548.56;107763;1272;24589;-81
2023/07/27 11:00:04;;;;;;;5.50;3.00;;;;;;;19.26;59.68;97546.20;107356;1274;22510;-79
2023/07/27 11:02:33;;;;;;;7.40;3.30;;;;;;;19.30;58.87;97544.55;106992;1274;25288;-78
2023/07/27 11:05:07;;;;;;;8.10;3.20;;;;;;;19.48;58.70;97549.45;107392;1270;22520;-78
2023/07/27 11:07:37;;;;;;;4.80;3.40;;;;;;;19.55;57.66;97550.02;107430;1274;22607;-79
2023/07/27 11:10:10;;;;;;;5.60;3.50;;;;;;;19.42;57.83;97545.91;107465;1274;22934;-78
2023/07/27 11:12:50;;;;;;;6.90;3.30;;;;;;;19.34;57.59;97544.06;107432;1274;25457;-78
2023/07/27 11:15:19;;;;;;;3.20;2.80;;;;;;;19.37;58.47;97541.69;107249;1274;24338;-77
2023/07/27 11:17:49;;;;;;;5.20;3.00;;;;;;;19.58;56.21;97537.42;106830;1274;22535;-78
2023/07/27 11:20:20;;;;;;;4.00;2.90;;;;;;;19.82;55.79;97532.11;107340;1273;25328;-78
2023/07/27 11:22:50;;;;;;;4.50;2.80;;;;;;;20.08;56.41;97528.25;107536;1272;25536;-78
2023/07/27 11:25:18;;;;;;;4.50;2.90;;;;;;;20.40;56.45;97526.48;107690;1272;22527;-78
2023/07/27 11:27:48;;;;;;;6.10;3.20;;;;;;;20.58;53.81;97530.64;107611;1272;22677;-79